Herreid, South Dakota
Current Conditions -  °F | °C
As of 12:52 PM on Saturday 25 Oct 2014 (Local Time) from KMBG Reporting Station
Clear Clear  
Wind Chill: 61°   Ceiling: Unl
Heat Index: 61°   Visibility: 10mi
Dew Point: 31°   Wind: 7mph
Humidity: 32%   Direction: 160°SSE
Pressure: 30.13"   Gusts: NA
Location:  45.83°N, 100.07°W
Report Text: KMBG 251752Z AUTO 16006KT 10SM CLR 16/M01 A3013 RMK AO2 SLP204 T01611006 10167 20044 58004
Loading
Personal Weather Stations






























Interactive Weather Map
Tropical Storm Tracking
New forecast layout! Learn more

10-Day Weather Forecast

Advertisements
Track Severe Weather on mobile